sensor_id;sensor_type;location;lat;lon;timestamp;temperature;humidity
38860;DHT22;24609;48.316;16.174;2023-09-19T00:01:06;19.50;99.90
38860;DHT22;24609;48.316;16.174;2023-09-19T00:03:37;19.40;1.00
38860;DHT22;24609;48.316;16.174;2023-09-19T00:06:04;19.40;99.90
38860;DHT22;24609;48.316;16.174;2023-09-19T00:08:36;19.30;1.00
38860;DHT22;24609;48.316;16.174;2023-09-19T00:11:02;19.20;99.90
38860;DHT22;24609;48.316;16.174;2023-09-19T00:13:29;19.20;99.90
38860;DHT22;24609;48.316;16.174;2023-09-19T00:15:56;19.20;99.90
38860;DHT22;24609;48.316;16.174;2023-09-19T00:18:25;19.10;99.90
38860;DHT22;24609;48.316;16.174;2023-09-19T00:20:58;19.10;99.90
38860;DHT22;24609;48.316;16.174;2023-09-19T00:23:24;19.10;99.90
38860;DHT22;24609;48.316;16.174;2023-09-19T00:25:50;19.10;99.90
38860;DHT22;24609;48.316;16.174;2023-09-19T00:28:17;19.10;99.90
38860;DHT22;24609;48.316;16.174;2023-09-19T00:30:44;18.90;99.90
38860;DHT22;24609;48.316;16.174;2023-09-19T00:33:11;18.70;99.90
38860;DHT22;24609;48.316;16.174;2023-09-19T00:35:50;18.60;99.90
38860;DHT22;24609;48.316;16.174;2023-09-19T00:38:15;18.40;1.00
38860;DHT22;24609;48.316;16.174;2023-09-19T00:40:46;18.30;1.00
38860;DHT22;24609;48.316;16.174;2023-09-19T00:43:12;18.10;1.00
38860;DHT22;24609;48.316;16.174;2023-09-19T00:45:38;18.00;28.30
38860;DHT22;24609;48.316;16.174;2023-09-19T00:48:08;17.90;99.90
38860;DHT22;24609;48.316;16.174;2023-09-19T00:50:35;17.90;99.90
38860;DHT22;24609;48.316;16.174;2023-09-19T00:53:01;17.90;99.90
38860;DHT22;24609;48.316;16.174;2023-09-19T00:55:34;17.90;84.40
38860;DHT22;24609;48.316;16.174;2023-09-19T00:58:03;17.80;99.90
38860;DHT22;24609;48.316;16.174;2023-09-19T01:00:28;17.80;99.90
38860;DHT22;24609;48.316;16.174;2023-09-19T01:02:54;17.80;99.90
38860;DHT22;24609;48.316;16.174;2023-09-19T01:05:20;17.70;99.90
38860;DHT22;24609;48.316;16.174;2023-09-19T01:07:46;17.70;99.90
38860;DHT22;24609;48.316;16.174;2023-09-19T01:10:15;17.60;99.90
38860;DHT22;24609;48.316;16.174;2023-09-19T01:18:02;17.40;99.90
38860;DHT22;24609;48.316;16.174;2023-09-19T01:31:13;17.00;99.90
38860;DHT22;24609;48.316;16.174;2023-09-19T01:36:23;17.00;99.90
38860;DHT22;24609;48.316;16.174;2023-09-19T01:38:50;16.90;99.90
38860;DHT22;24609;48.316;16.174;2023-09-19T01:41:25;16.80;99.90
38860;DHT22;24609;48.316;16.174;2023-09-19T01:43:52;16.80;99.90
38860;DHT22;24609;48.316;16.174;2023-09-19T01:46:30;16.80;99.90
38860;DHT22;24609;48.316;16.174;2023-09-19T01:51:46;16.80;99.90
38860;DHT22;24609;48.316;16.174;2023-09-19T01:54:20;16.80;99.90
38860;DHT22;24609;48.316;16.174;2023-09-19T01:59:34;16.80;99.90
38860;DHT22;24609;48.316;16.174;2023-09-19T02:02:01;16.70;99.90
38860;DHT22;24609;48.316;16.174;2023-09-19T02:04:27;16.60;99.90
38860;DHT22;24609;48.316;16.174;2023-09-19T02:06:53;16.60;99.90
38860;DHT22;24609;48.316;16.174;2023-09-19T02:09:19;16.50;99.90
38860;DHT22;24609;48.316;16.174;2023-09-19T02:11:44;16.50;99.90
38860;DHT22;24609;48.316;16.174;2023-09-19T02:14:10;16.50;99.90
38860;DHT22;24609;48.316;16.174;2023-09-19T02:16:36;16.50;99.90
38860;DHT22;24609;48.316;16.174;2023-09-19T02:19:01;16.60;99.90
38860;DHT22;24609;48.316;16.174;2023-09-19T02:21:31;16.50;99.90
38860;DHT22;24609;48.316;16.174;2023-09-19T02:23:57;16.50;99.90
38860;DHT22;24609;48.316;16.174;2023-09-19T02:26:24;16.50;99.90
38860;DHT22;24609;48.316;16.174;2023-09-19T02:28:50;16.40;99.90
38860;DHT22;24609;48.316;16.174;2023-09-19T02:31:15;16.50;99.90
38860;DHT22;24609;48.316;16.174;2023-09-19T02:33:42;16.40;99.90
38860;DHT22;24609;48.316;16.174;2023-09-19T02:36:08;16.40;99.90
38860;DHT22;24609;48.316;16.174;2023-09-19T02:38:34;16.40;99.90
38860;DHT22;24609;48.316;16.174;2023-09-19T02:41:00;16.40;99.90
38860;DHT22;24609;48.316;16.174;2023-09-19T02:43:27;16.40;99.90
38860;DHT22;24609;48.316;16.174;2023-09-19T02:45:53;16.40;99.90
38860;DHT22;24609;48.316;16.174;2023-09-19T02:48:19;16.40;99.90
38860;DHT22;24609;48.316;16.174;2023-09-19T02:50:45;16.40;99.90
38860;DHT22;24609;48.316;16.174;2023-09-19T02:53:11;16.40;99.90
38860;DHT22;24609;48.316;16.174;2023-09-19T02:55:39;16.30;99.90
38860;DHT22;24609;48.316;16.174;2023-09-19T02:58:06;16.30;99.90
38860;DHT22;24609;48.316;16.174;2023-09-19T03:00:37;16.30;99.90
38860;DHT22;24609;48.316;16.174;2023-09-19T03:03:03;16.30;99.90
38860;DHT22;24609;48.316;16.174;2023-09-19T03:05:30;16.30;99.90
38860;DHT22;24609;48.316;16.174;2023-09-19T03:07:56;16.30;99.90
38860;DHT22;24609;48.316;16.174;2023-09-19T03:10:23;16.30;99.90
38860;DHT22;24609;48.316;16.174;2023-09-19T03:12:50;16.30;99.90
38860;DHT22;24609;48.316;16.174;2023-09-19T03:15:16;16.30;99.90
38860;DHT22;24609;48.316;16.174;2023-09-19T03:17:46;16.40;99.90
38860;DHT22;24609;48.316;16.174;2023-09-19T03:20:13;16.40;99.90
38860;DHT22;24609;48.316;16.174;2023-09-19T03:22:40;16.40;99.90
38860;DHT22;24609;48.316;16.174;2023-09-19T03:25:07;16.50;99.90
38860;DHT22;24609;48.316;16.174;2023-09-19T03:27:36;16.50;99.90
38860;DHT22;24609;48.316;16.174;2023-09-19T03:30:03;16.50;99.90
38860;DHT22;24609;48.316;16.174;2023-09-19T03:32:34;16.50;99.90
38860;DHT22;24609;48.316;16.174;2023-09-19T03:35:00;16.60;99.90
38860;DHT22;24609;48.316;16.174;2023-09-19T03:37:26;16.60;99.90
38860;DHT22;24609;48.316;16.174;2023-09-19T03:39:51;16.60;99.90
38860;DHT22;24609;48.316;16.174;2023-09-19T03:42:17;16.60;99.90
38860;DHT22;24609;48.316;16.174;2023-09-19T03:44:43;16.60;99.90
38860;DHT22;24609;48.316;16.174;2023-09-19T03:47:08;16.70;99.90
38860;DHT22;24609;48.316;16.174;2023-09-19T03:49:34;16.70;99.90
38860;DHT22;24609;48.316;16.174;2023-09-19T03:52:00;16.70;99.90
38860;DHT22;24609;48.316;16.174;2023-09-19T03:54:25;16.70;99.90
38860;DHT22;24609;48.316;16.174;2023-09-19T03:56:51;16.70;99.90
38860;DHT22;24609;48.316;16.174;2023-09-19T03:59:17;16.80;99.90
38860;DHT22;24609;48.316;16.174;2023-09-19T04:01:43;16.70;99.90
38860;DHT22;24609;48.316;16.174;2023-09-19T04:04:09;16.70;99.90
38860;DHT22;24609;48.316;16.174;2023-09-19T04:06:35;16.80;99.90
38860;DHT22;24609;48.316;16.174;2023-09-19T04:09:04;16.70;99.90
38860;DHT22;24609;48.316;16.174;2023-09-19T04:11:33;16.80;99.90
38860;DHT22;24609;48.316;16.174;2023-09-19T04:13:59;16.90;99.90
38860;DHT22;24609;48.316;16.174;2023-09-19T04:16:24;16.90;99.90
38860;DHT22;24609;48.316;16.174;2023-09-19T04:18:50;16.90;99.90
38860;DHT22;24609;48.316;16.174;2023-09-19T04:21:16;16.90;99.90
38860;DHT22;24609;48.316;16.174;2023-09-19T04:23:42;16.90;99.90
38860;DHT22;24609;48.316;16.174;2023-09-19T04:26:08;16.90;99.90
38860;DHT22;24609;48.316;16.174;2023-09-19T04:28:34;16.90;99.90
38860;DHT22;24609;48.316;16.174;2023-09-19T04:31:00;16.90;99.90
38860;DHT22;24609;48.316;16.174;2023-09-19T04:33:26;16.90;99.90
38860;DHT22;24609;48.316;16.174;2023-09-19T04:35:55;16.90;99.90
38860;DHT22;24609;48.316;16.174;2023-09-19T04:38:21;16.90;99.90
38860;DHT22;24609;48.316;16.174;2023-09-19T04:40:47;16.90;99.90
38860;DHT22;24609;48.316;16.174;2023-09-19T04:43:13;16.90;99.90
38860;DHT22;24609;48.316;16.174;2023-09-19T04:45:39;16.90;99.90
38860;DHT22;24609;48.316;16.174;2023-09-19T04:48:05;16.80;99.90
38860;DHT22;24609;48.316;16.174;2023-09-19T04:50:34;16.80;99.90
38860;DHT22;24609;48.316;16.174;2023-09-19T04:53:00;16.70;99.90
38860;DHT22;24609;48.316;16.174;2023-09-19T04:55:26;16.70;99.90
38860;DHT22;24609;48.316;16.174;2023-09-19T04:57:53;16.70;99.90
38860;DHT22;24609;48.316;16.174;2023-09-19T05:00:23;16.70;99.90
38860;DHT22;24609;48.316;16.174;2023-09-19T05:02:55;16.60;99.90
38860;DHT22;24609;48.316;16.174;2023-09-19T05:05:21;16.60;99.90
38860;DHT22;24609;48.316;16.174;2023-09-19T05:07:48;16.60;99.90
38860;DHT22;24609;48.316;16.174;2023-09-19T05:10:14;16.50;99.90
38860;DHT22;24609;48.316;16.174;2023-09-19T05:12:40;16.60;99.90
38860;DHT22;24609;48.316;16.174;2023-09-19T05:15:07;16.60;99.90
38860;DHT22;24609;48.316;16.174;2023-09-19T05:17:36;16.60;99.90
38860;DHT22;24609;48.316;16.174;2023-09-19T05:20:02;16.60;99.90
38860;DHT22;24609;48.316;16.174;2023-09-19T05:22:32;16.60;99.90
38860;DHT22;24609;48.316;16.174;2023-09-19T05:25:00;16.60;99.90
38860;DHT22;24609;48.316;16.174;2023-09-19T05:27:26;16.50;99.90
38860;DHT22;24609;48.316;16.174;2023-09-19T05:29:51;16.60;99.90
38860;DHT22;24609;48.316;16.174;2023-09-19T05:32:18;16.40;99.90
38860;DHT22;24609;48.316;16.174;2023-09-19T05:34:45;16.40;99.90
38860;DHT22;24609;48.316;16.174;2023-09-19T05:37:13;16.30;99.90
38860;DHT22;24609;48.316;16.174;2023-09-19T05:39:39;16.40;99.90
38860;DHT22;24609;48.316;16.174;2023-09-19T05:42:04;16.40;99.90
38860;DHT22;24609;48.316;16.174;2023-09-19T05:44:30;16.50;99.90
38860;DHT22;24609;48.316;16.174;2023-09-19T05:46:56;16.50;99.90
38860;DHT22;24609;48.316;16.174;2023-09-19T05:49:22;16.60;99.90
38860;DHT22;24609;48.316;16.174;2023-09-19T05:51:50;16.70;99.90
38860;DHT22;24609;48.316;16.174;2023-09-19T05:54:19;16.80;99.90
38860;DHT22;24609;48.316;16.174;2023-09-19T05:56:45;16.90;99.90
38860;DHT22;24609;48.316;16.174;2023-09-19T05:59:12;17.10;99.90
38860;DHT22;24609;48.316;16.174;2023-09-19T06:01:42;17.20;99.90
38860;DHT22;24609;48.316;16.174;2023-09-19T06:04:07;17.30;99.90
38860;DHT22;24609;48.316;16.174;2023-09-19T06:06:33;17.40;99.90
38860;DHT22;24609;48.316;16.174;2023-09-19T06:09:06;17.40;99.90
38860;DHT22;24609;48.316;16.174;2023-09-19T06:11:34;17.50;99.90
38860;DHT22;24609;48.316;16.174;2023-09-19T06:14:01;17.60;99.90
38860;DHT22;24609;48.316;16.174;2023-09-19T06:16:28;17.80;99.90
38860;DHT22;24609;48.316;16.174;2023-09-19T06:18:55;17.80;99.90
38860;DHT22;24609;48.316;16.174;2023-09-19T06:21:24;17.90;99.90
38860;DHT22;24609;48.316;16.174;2023-09-19T06:23:50;17.90;99.90
38860;DHT22;24609;48.316;16.174;2023-09-19T06:26:16;18.00;99.90
38860;DHT22;24609;48.316;16.174;2023-09-19T06:28:42;18.00;99.90
38860;DHT22;24609;48.316;16.174;2023-09-19T06:31:09;18.00;99.90
38860;DHT22;24609;48.316;16.174;2023-09-19T06:33:38;18.20;99.90
38860;DHT22;24609;48.316;16.174;2023-09-19T06:36:08;18.30;99.90
38860;DHT22;24609;48.316;16.174;2023-09-19T06:38:34;18.20;99.90
38860;DHT22;24609;48.316;16.174;2023-09-19T06:41:02;18.20;99.90
38860;DHT22;24609;48.316;16.174;2023-09-19T06:43:31;18.10;99.90
38860;DHT22;24609;48.316;16.174;2023-09-19T06:45:56;18.00;99.90
38860;DHT22;24609;48.316;16.174;2023-09-19T06:48:23;18.00;99.90
38860;DHT22;24609;48.316;16.174;2023-09-19T06:50:50;18.00;99.90
38860;DHT22;24609;48.316;16.174;2023-09-19T06:53:16;18.10;99.90
38860;DHT22;24609;48.316;16.174;2023-09-19T06:55:42;18.10;99.90
38860;DHT22;24609;48.316;16.174;2023-09-19T06:58:09;18.00;99.90
38860;DHT22;24609;48.316;16.174;2023-09-19T07:00:36;18.10;99.90
38860;DHT22;24609;48.316;16.174;2023-09-19T07:03:05;18.10;99.90
38860;DHT22;24609;48.316;16.174;2023-09-19T07:05:34;18.10;99.90
38860;DHT22;24609;48.316;16.174;2023-09-19T07:08:02;18.00;99.90
38860;DHT22;24609;48.316;16.174;2023-09-19T07:10:29;18.00;99.90
38860;DHT22;24609;48.316;16.174;2023-09-19T07:12:56;18.00;99.90
38860;DHT22;24609;48.316;16.174;2023-09-19T07:15:23;18.00;99.90
38860;DHT22;24609;48.316;16.174;2023-09-19T07:17:51;17.90;99.90
38860;DHT22;24609;48.316;16.174;2023-09-19T07:20:17;17.90;99.90
38860;DHT22;24609;48.316;16.174;2023-09-19T07:22:43;17.90;99.90
38860;DHT22;24609;48.316;16.174;2023-09-19T07:25:08;17.90;99.90
38860;DHT22;24609;48.316;16.174;2023-09-19T07:27:34;18.00;99.90
38860;DHT22;24609;48.316;16.174;2023-09-19T07:30:00;18.10;99.90
38860;DHT22;24609;48.316;16.174;2023-09-19T07:32:25;18.20;99.90
38860;DHT22;24609;48.316;16.174;2023-09-19T07:34:51;18.20;99.90
38860;DHT22;24609;48.316;16.174;2023-09-19T07:37:17;18.40;99.90
38860;DHT22;24609;48.316;16.174;2023-09-19T07:39:43;18.50;99.90
38860;DHT22;24609;48.316;16.174;2023-09-19T07:42:10;18.60;99.90
38860;DHT22;24609;48.316;16.174;2023-09-19T07:44:36;18.60;99.90
38860;DHT22;24609;48.316;16.174;2023-09-19T07:47:02;18.70;99.90
38860;DHT22;24609;48.316;16.174;2023-09-19T07:49:28;18.60;99.90
38860;DHT22;24609;48.316;16.174;2023-09-19T07:51:54;18.60;99.90
38860;DHT22;24609;48.316;16.174;2023-09-19T07:54:22;18.80;99.90
38860;DHT22;24609;48.316;16.174;2023-09-19T07:56:47;19.10;99.90
38860;DHT22;24609;48.316;16.174;2023-09-19T07:59:13;19.10;99.90
38860;DHT22;24609;48.316;16.174;2023-09-19T08:01:39;19.00;99.90
38860;DHT22;24609;48.316;16.174;2023-09-19T08:04:07;19.10;99.90
38860;DHT22;24609;48.316;16.174;2023-09-19T08:06:32;19.50;99.90
38860;DHT22;24609;48.316;16.174;2023-09-19T08:08:58;20.00;72.70
38860;DHT22;24609;48.316;16.174;2023-09-19T08:11:26;20.20;1.00
38860;DHT22;24609;48.316;16.174;2023-09-19T08:13:51;20.40;1.00
38860;DHT22;24609;48.316;16.174;2023-09-19T08:16:18;20.40;99.90
38860;DHT22;24609;48.316;16.174;2023-09-19T08:18:48;20.20;99.90
38860;DHT22;24609;48.316;16.174;2023-09-19T08:21:21;20.50;99.90
38860;DHT22;24609;48.316;16.174;2023-09-19T08:23:46;20.60;99.90
38860;DHT22;24609;48.316;16.174;2023-09-19T08:26:12;21.00;99.90
38860;DHT22;24609;48.316;16.174;2023-09-19T08:28:38;21.00;99.90
38860;DHT22;24609;48.316;16.174;2023-09-19T08:31:07;21.20;99.90
38860;DHT22;24609;48.316;16.174;2023-09-19T08:33:37;21.30;1.00
38860;DHT22;24609;48.316;16.174;2023-09-19T08:36:03;21.10;1.00
38860;DHT22;24609;48.316;16.174;2023-09-19T08:38:34;20.40;7.40
38860;DHT22;24609;48.316;16.174;2023-09-19T08:41:05;20.00;99.90
38860;DHT22;24609;48.316;16.174;2023-09-19T08:43:31;19.70;99.90
38860;DHT22;24609;48.316;16.174;2023-09-19T08:48:32;19.30;99.90
38860;DHT22;24609;48.316;16.174;2023-09-19T08:51:03;19.20;1.00
38860;DHT22;24609;48.316;16.174;2023-09-19T08:53:43;19.10;1.00
38860;DHT22;24609;48.316;16.174;2023-09-19T08:56:17;19.00;1.00
38860;DHT22;24609;48.316;16.174;2023-09-19T08:58:51;19.00;1.00
38860;DHT22;24609;48.316;16.174;2023-09-19T09:01:19;19.10;1.00
38860;DHT22;24609;48.316;16.174;2023-09-19T09:03:51;19.10;1.00
38860;DHT22;24609;48.316;16.174;2023-09-19T09:06:19;19.20;1.00
38860;DHT22;24609;48.316;16.174;2023-09-19T09:08:46;19.20;99.90
38860;DHT22;24609;48.316;16.174;2023-09-19T09:11:13;19.30;99.90
38860;DHT22;24609;48.316;16.174;2023-09-19T09:13:40;19.50;99.90
38860;DHT22;24609;48.316;16.174;2023-09-19T09:16:07;19.70;99.90
38860;DHT22;24609;48.316;16.174;2023-09-19T09:18:33;19.90;45.60
38860;DHT22;24609;48.316;16.174;2023-09-19T09:20:58;19.90;99.90
38860;DHT22;24609;48.316;16.174;2023-09-19T09:23:26;20.20;73.90
38860;DHT22;24609;48.316;16.174;2023-09-19T09:25:55;20.20;99.90
38860;DHT22;24609;48.316;16.174;2023-09-19T09:28:29;20.70;99.90
38860;DHT22;24609;48.316;16.174;2023-09-19T09:30:57;21.00;99.90
38860;DHT22;24609;48.316;16.174;2023-09-19T09:33:28;21.90;99.90
38860;DHT22;24609;48.316;16.174;2023-09-19T09:35:56;22.10;1.00
38860;DHT22;24609;48.316;16.174;2023-09-19T09:38:25;22.40;99.90
38860;DHT22;24609;48.316;16.174;2023-09-19T09:40:58;22.60;4.80
38860;DHT22;24609;48.316;16.174;2023-09-19T09:43:37;23.50;1.00
38860;DHT22;24609;48.316;16.174;2023-09-19T09:46:15;23.30;92.70
38860;DHT22;24609;48.316;16.174;2023-09-19T09:49:04;23.90;99.10
38860;DHT22;24609;48.316;16.174;2023-09-19T09:54:34;23.70;97.50
38860;DHT22;24609;48.316;16.174;2023-09-19T09:57:04;23.70;96.80
38860;DHT22;24609;48.316;16.174;2023-09-19T10:02:30;25.40;99.90
38860;DHT22;24609;48.316;16.174;2023-09-19T10:07:46;27.50;96.20
38860;DHT22;24609;48.316;16.174;2023-09-19T10:10:38;28.50;93.60
38860;DHT22;24609;48.316;16.174;2023-09-19T10:13:09;27.90;91.70
38860;DHT22;24609;48.316;16.174;2023-09-19T10:15:38;28.60;90.90
38860;DHT22;24609;48.316;16.174;2023-09-19T10:18:06;30.10;82.70
38860;DHT22;24609;48.316;16.174;2023-09-19T10:20:35;30.70;82.50
38860;DHT22;24609;48.316;16.174;2023-09-19T10:23:07;31.20;73.30
38860;DHT22;24609;48.316;16.174;2023-09-19T10:25:40;29.20;77.10
38860;DHT22;24609;48.316;16.174;2023-09-19T10:28:12;30.10;79.20
38860;DHT22;24609;48.316;16.174;2023-09-19T10:30:42;30.30;73.70
38860;DHT22;24609;48.316;16.174;2023-09-19T10:33:15;30.40;72.60
38860;DHT22;24609;48.316;16.174;2023-09-19T10:35:46;28.60;74.70
38860;DHT22;24609;48.316;16.174;2023-09-19T10:38:13;29.60;72.80
38860;DHT22;24609;48.316;16.174;2023-09-19T10:40:40;30.60;64.70
38860;DHT22;24609;48.316;16.174;2023-09-19T10:43:17;29.70;74.10
38860;DHT22;24609;48.316;16.174;2023-09-19T10:45:45;28.50;76.20
38860;DHT22;24609;48.316;16.174;2023-09-19T10:48:12;28.80;74.70
38860;DHT22;24609;48.316;16.174;2023-09-19T10:50:53;30.40;68.70
38860;DHT22;24609;48.316;16.174;2023-09-19T10:53:21;30.00;69.80
38860;DHT22;24609;48.316;16.174;2023-09-19T10:55:52;28.40;74.00
38860;DHT22;24609;48.316;16.174;2023-09-19T10:58:45;26.70;80.10
38860;DHT22;24609;48.316;16.174;2023-09-19T11:01:12;24.60;88.30
38860;DHT22;24609;48.316;16.174;2023-09-19T11:03:38;23.50;92.80
38860;DHT22;24609;48.316;16.174;2023-09-19T11:06:17;22.90;97.40
38860;DHT22;24609;48.316;16.174;2023-09-19T11:30:51;32.10;70.70
38860;DHT22;24609;48.316;16.174;2023-09-19T11:33:24;33.30;57.50
38860;DHT22;24609;48.316;16.174;2023-09-19T11:36:08;33.80;54.20
38860;DHT22;24609;48.316;16.174;2023-09-19T11:41:37;31.20;56.50
38860;DHT22;24609;48.316;16.174;2023-09-19T11:49:31;31.70;53.90
38860;DHT22;24609;48.316;16.174;2023-09-19T11:51:58;31.30;51.40
38860;DHT22;24609;48.316;16.174;2023-09-19T11:54:27;31.40;53.20
38860;DHT22;24609;48.316;16.174;2023-09-19T11:56:57;33.70;50.40
38860;DHT22;24609;48.316;16.174;2023-09-19T11:59:26;33.00;48.20
38860;DHT22;24609;48.316;16.174;2023-09-19T12:02:04;33.10;48.70
38860;DHT22;24609;48.316;16.174;2023-09-19T12:04:45;33.40;46.10
38860;DHT22;24609;48.316;16.174;2023-09-19T12:07:15;34.10;45.40
38860;DHT22;24609;48.316;16.174;2023-09-19T12:09:42;32.60;45.70
38860;DHT22;24609;48.316;16.174;2023-09-19T12:12:10;32.20;48.60
38860;DHT22;24609;48.316;16.174;2023-09-19T12:14:38;31.50;47.80
38860;DHT22;24609;48.316;16.174;2023-09-19T12:17:05;32.80;46.20
38860;DHT22;24609;48.316;16.174;2023-09-19T12:19:30;35.10;46.50
38860;DHT22;24609;48.316;16.174;2023-09-19T12:22:02;31.50;47.40
38860;DHT22;24609;48.316;16.174;2023-09-19T12:24:31;28.80;53.60
38860;DHT22;24609;48.316;16.174;2023-09-19T12:27:05;29.90;52.30
38860;DHT22;24609;48.316;16.174;2023-09-19T12:29:47;31.20;50.20
38860;DHT22;24609;48.316;16.174;2023-09-19T12:32:34;29.30;48.90
38860;DHT22;24609;48.316;16.174;2023-09-19T12:35:00;32.50;46.50
38860;DHT22;24609;48.316;16.174;2023-09-19T12:37:33;35.90;41.60
38860;DHT22;24609;48.316;16.174;2023-09-19T12:40:08;34.20;41.40
38860;DHT22;24609;48.316;16.174;2023-09-19T12:42:44;31.10;46.00
38860;DHT22;24609;48.316;16.174;2023-09-19T12:45:11;32.20;44.70
38860;DHT22;24609;48.316;16.174;2023-09-19T12:47:38;31.20;47.00
38860;DHT22;24609;48.316;16.174;2023-09-19T12:50:15;32.60;43.70
38860;DHT22;24609;48.316;16.174;2023-09-19T12:52:51;32.20;43.00
38860;DHT22;24609;48.316;16.174;2023-09-19T12:55:26;30.10;48.30
38860;DHT22;24609;48.316;16.174;2023-09-19T13:00:45;28.30;52.20
38860;DHT22;24609;48.316;16.174;2023-09-19T13:05:56;29.70;48.90
38860;DHT22;24609;48.316;16.174;2023-09-19T13:08:31;27.60;51.60
38860;DHT22;24609;48.316;16.174;2023-09-19T13:13:34;26.20;53.40
38860;DHT22;24609;48.316;16.174;2023-09-19T13:16:02;25.20;57.10
38860;DHT22;24609;48.316;16.174;2023-09-19T13:18:28;24.60;59.20
38860;DHT22;24609;48.316;16.174;2023-09-19T13:21:08;24.70;63.40
38860;DHT22;24609;48.316;16.174;2023-09-19T13:23:38;24.80;70.00
38860;DHT22;24609;48.316;16.174;2023-09-19T13:26:03;25.00;72.40
38860;DHT22;24609;48.316;16.174;2023-09-19T13:28:33;24.20;73.30
38860;DHT22;24609;48.316;16.174;2023-09-19T13:30:59;23.50;78.10
38860;DHT22;24609;48.316;16.174;2023-09-19T13:33:25;23.30;84.40
38860;DHT22;24609;48.316;16.174;2023-09-19T13:35:52;23.00;86.00
38860;DHT22;24609;48.316;16.174;2023-09-19T13:38:18;23.20;90.20
38860;DHT22;24609;48.316;16.174;2023-09-19T13:40:48;23.40;87.90
38860;DHT22;24609;48.316;16.174;2023-09-19T13:43:14;23.20;88.60
38860;DHT22;24609;48.316;16.174;2023-09-19T13:45:40;23.30;90.10
38860;DHT22;24609;48.316;16.174;2023-09-19T13:48:09;23.60;90.00
38860;DHT22;24609;48.316;16.174;2023-09-19T13:50:37;23.70;86.60
38860;DHT22;24609;48.316;16.174;2023-09-19T13:53:08;23.70;87.10
38860;DHT22;24609;48.316;16.174;2023-09-19T13:55:33;23.40;89.00
38860;DHT22;24609;48.316;16.174;2023-09-19T13:57:59;23.30;90.40
38860;DHT22;24609;48.316;16.174;2023-09-19T14:00:25;23.30;89.50
38860;DHT22;24609;48.316;16.174;2023-09-19T14:02:51;23.20;89.30
38860;DHT22;24609;48.316;16.174;2023-09-19T14:05:17;23.70;88.00
38860;DHT22;24609;48.316;16.174;2023-09-19T14:07:44;24.10;85.50
38860;DHT22;24609;48.316;16.174;2023-09-19T14:10:11;24.40;83.90
38860;DHT22;24609;48.316;16.174;2023-09-19T14:12:37;24.40;83.10
38860;DHT22;24609;48.316;16.174;2023-09-19T14:15:07;24.20;80.90
38860;DHT22;24609;48.316;16.174;2023-09-19T14:17:33;24.10;80.00
38860;DHT22;24609;48.316;16.174;2023-09-19T14:19:59;24.40;80.40
38860;DHT22;24609;48.316;16.174;2023-09-19T14:22:25;24.40;79.10
38860;DHT22;24609;48.316;16.174;2023-09-19T14:24:50;24.30;77.40
38860;DHT22;24609;48.316;16.174;2023-09-19T14:27:17;24.30;78.20
38860;DHT22;24609;48.316;16.174;2023-09-19T14:29:42;24.10;78.10
38860;DHT22;24609;48.316;16.174;2023-09-19T14:32:08;24.10;78.30
38860;DHT22;24609;48.316;16.174;2023-09-19T14:34:34;24.10;80.60
38860;DHT22;24609;48.316;16.174;2023-09-19T14:37:02;23.90;81.80
38860;DHT22;24609;48.316;16.174;2023-09-19T14:39:27;23.60;82.80
38860;DHT22;24609;48.316;16.174;2023-09-19T14:41:54;23.30;82.20
38860;DHT22;24609;48.316;16.174;2023-09-19T14:44:19;23.40;83.30
38860;DHT22;24609;48.316;16.174;2023-09-19T14:46:45;23.40;82.50
38860;DHT22;24609;48.316;16.174;2023-09-19T14:49:11;23.50;84.80
38860;DHT22;24609;48.316;16.174;2023-09-19T14:51:38;23.40;86.40
38860;DHT22;24609;48.316;16.174;2023-09-19T14:54:09;23.40;86.70
38860;DHT22;24609;48.316;16.174;2023-09-19T14:56:35;23.20;88.00
38860;DHT22;24609;48.316;16.174;2023-09-19T14:59:00;23.30;87.30
38860;DHT22;24609;48.316;16.174;2023-09-19T15:01:26;23.40;87.70
38860;DHT22;24609;48.316;16.174;2023-09-19T15:03:52;23.40;89.00
38860;DHT22;24609;48.316;16.174;2023-09-19T15:06:19;23.50;90.00
38860;DHT22;24609;48.316;16.174;2023-09-19T15:08:47;23.50;88.90
38860;DHT22;24609;48.316;16.174;2023-09-19T15:11:14;23.60;88.50
38860;DHT22;24609;48.316;16.174;2023-09-19T15:13:42;23.70;88.50
38860;DHT22;24609;48.316;16.174;2023-09-19T15:16:09;24.00;87.00
38860;DHT22;24609;48.316;16.174;2023-09-19T15:18:36;24.00;86.70
38860;DHT22;24609;48.316;16.174;2023-09-19T15:21:10;23.90;88.90
38860;DHT22;24609;48.316;16.174;2023-09-19T15:23:38;23.60;86.90
38860;DHT22;24609;48.316;16.174;2023-09-19T15:26:04;23.40;87.90
38860;DHT22;24609;48.316;16.174;2023-09-19T15:28:31;23.20;88.80
38860;DHT22;24609;48.316;16.174;2023-09-19T15:31:10;22.90;90.60
38860;DHT22;24609;48.316;16.174;2023-09-19T15:33:36;22.80;90.80
38860;DHT22;24609;48.316;16.174;2023-09-19T15:36:06;22.80;91.50
38860;DHT22;24609;48.316;16.174;2023-09-19T15:41:32;22.70;92.50
38860;DHT22;24609;48.316;16.174;2023-09-19T15:43:59;22.60;93.70
38860;DHT22;24609;48.316;16.174;2023-09-19T15:46:27;22.50;94.10
38860;DHT22;24609;48.316;16.174;2023-09-19T15:48:55;22.40;94.70
38860;DHT22;24609;48.316;16.174;2023-09-19T15:51:20;22.40;95.20
38860;DHT22;24609;48.316;16.174;2023-09-19T15:53:48;22.30;94.30
38860;DHT22;24609;48.316;16.174;2023-09-19T15:56:15;22.30;95.40
38860;DHT22;24609;48.316;16.174;2023-09-19T15:58:44;22.20;95.30
38860;DHT22;24609;48.316;16.174;2023-09-19T16:01:10;22.10;95.90
38860;DHT22;24609;48.316;16.174;2023-09-19T16:03:37;22.00;96.30
38860;DHT22;24609;48.316;16.174;2023-09-19T16:06:10;21.90;96.80
38860;DHT22;24609;48.316;16.174;2023-09-19T16:08:47;21.90;98.30
38860;DHT22;24609;48.316;16.174;2023-09-19T16:11:13;21.80;98.80
38860;DHT22;24609;48.316;16.174;2023-09-19T16:13:40;21.70;99.60
38860;DHT22;24609;48.316;16.174;2023-09-19T16:16:07;21.50;99.90
38860;DHT22;24609;48.316;16.174;2023-09-19T16:18:48;21.30;99.90
38860;DHT22;24609;48.316;16.174;2023-09-19T16:21:14;21.20;99.90
38860;DHT22;24609;48.316;16.174;2023-09-19T16:23:40;21.10;99.90
38860;DHT22;24609;48.316;16.174;2023-09-19T16:26:09;20.90;99.90
38860;DHT22;24609;48.316;16.174;2023-09-19T16:28:36;20.90;99.90
38860;DHT22;24609;48.316;16.174;2023-09-19T16:31:07;20.80;99.90
38860;DHT22;24609;48.316;16.174;2023-09-19T16:33:34;20.70;99.90
38860;DHT22;24609;48.316;16.174;2023-09-19T16:36:00;20.70;99.90
38860;DHT22;24609;48.316;16.174;2023-09-19T16:38:26;20.60;99.90
38860;DHT22;24609;48.316;16.174;2023-09-19T16:40:53;20.40;99.90